Time;durP1;ratioP1;P1;durP2;ratioP2;P2;SDS_P1;SDS_P2;PMS_P1;PMS_P2;Temp;Humidity;BMP_temperature;BMP_pressure;BME280_temperature;BME280_humidity;BME280_pressure;Samples;Min_cycle;Max_cycle;Signal;HPM_P1;HPM_P2
2021/07/05 00:02:09;;;;;;;9.10;6.85;;;;;;;20.31;59.32;99462.75;5089951;28;20043;-23
2021/07/05 00:04:35;;;;;;;8.63;7.18;;;;;;;20.13;59.19;99455.50;5107916;28;20043;-23
2021/07/05 00:07:01;;;;;;;8.10;6.22;;;;;;;19.61;60.63;99426.50;5107865;28;20042;-23
2021/07/05 00:09:26;;;;;;;9.25;6.03;;;;;;;19.68;60.82;99434.28;5107915;28;20024;-23
2021/07/05 00:11:52;;;;;;;8.63;5.93;;;;;;;19.91;59.71;99423.66;5107827;28;20407;-23
2021/07/05 00:14:17;;;;;;;8.63;6.18;;;;;;;19.82;61.22;99437.88;5108059;28;20024;-23
2021/07/05 00:16:43;;;;;;;8.45;6.05;;;;;;;19.63;61.75;99418.91;5089590;28;20087;-23
2021/07/05 00:19:09;;;;;;;8.98;6.35;;;;;;;19.77;61.14;99418.19;5107916;28;20094;-23
2021/07/05 00:21:34;;;;;;;9.82;6.63;;;;;;;19.84;60.93;99426.75;5107809;28;20051;-24
2021/07/05 00:24:00;;;;;;;8.65;6.78;;;;;;;19.42;62.18;99417.63;5108008;28;20199;-23
2021/07/05 00:26:25;;;;;;;8.75;6.60;;;;;;;18.96;63.71;99407.44;5108086;28;20140;-23
2021/07/05 00:28:51;;;;;;;10.15;6.95;;;;;;;18.48;64.66;99411.78;5107889;28;20043;-23
2021/07/05 00:31:16;;;;;;;9.15;6.97;;;;;;;19.01;63.36;99420.91;5107840;28;20027;-23
2021/07/05 00:33:42;;;;;;;8.23;6.70;;;;;;;19.21;62.13;99423.34;5109514;28;20567;-23
2021/07/05 00:36:07;;;;;;;10.68;6.88;;;;;;;19.17;61.74;99405.28;5111142;28;20027;-23
2021/07/05 00:38:33;;;;;;;11.43;6.70;;;;;;;18.87;63.30;99412.72;5111419;28;20024;-23
2021/07/05 00:40:58;;;;;;;9.07;6.05;;;;;;;18.32;65.33;99429.22;5111444;28;20031;-23
2021/07/05 00:43:24;;;;;;;9.75;5.90;;;;;;;17.81;67.02;99424.28;5093012;28;20035;-23
2021/07/05 00:45:49;;;;;;;7.90;5.65;;;;;;;17.73;67.31;99406.78;5111240;28;20148;-23
2021/07/05 00:48:15;;;;;;;13.93;6.68;;;;;;;18.00;66.74;99417.13;5111246;28;20038;-23
2021/07/05 00:50:40;;;;;;;11.15;6.60;;;;;;;17.58;68.40;99426.59;5110981;28;20032;-23
2021/07/05 00:53:06;;;;;;;9.98;6.15;;;;;;;17.36;68.56;99418.94;5111151;28;20028;-23
2021/07/05 00:55:34;;;;;;;12.35;6.28;;;;;;;17.25;68.48;99391.25;5092760;28;20023;-24
2021/07/05 00:58:00;;;;;;;8.25;6.47;;;;;;;17.11;69.70;99411.00;5110638;28;20042;-23
2021/07/05 01:00:25;;;;;;;11.20;7.45;;;;;;;16.84;71.53;99418.41;5111125;28;20031;-23
2021/07/05 01:02:51;;;;;;;10.15;6.95;;;;;;;16.83;71.28;99411.41;5110891;28;20126;-23
2021/07/05 01:05:17;;;;;;;9.27;7.10;;;;;;;17.00;70.78;99438.00;5076374;28;20880;-23
2021/07/05 01:07:43;;;;;;;12.15;7.35;;;;;;;17.45;69.04;99443.41;5110981;28;20415;-23
2021/07/05 01:10:09;;;;;;;11.02;7.93;;;;;;;18.03;66.50;99411.16;5110714;28;20055;-23
2021/07/05 01:12:34;;;;;;;10.82;8.13;;;;;;;18.77;64.64;99448.72;5092527;28;20655;-23
2021/07/05 01:15:00;;;;;;;9.35;7.55;;;;;;;18.63;64.47;99439.69;5110566;28;20482;-23
2021/07/05 01:17:25;;;;;;;10.80;7.88;;;;;;;18.95;63.60;99435.56;5110542;28;20035;-23
2021/07/05 01:19:51;;;;;;;10.52;7.05;;;;;;;19.11;62.48;99423.47;5110535;28;20088;-23
2021/07/05 01:22:17;;;;;;;10.60;7.50;;;;;;;18.48;65.14;99446.88;5110612;28;20038;-23
2021/07/05 01:24:43;;;;;;;9.85;7.38;;;;;;;18.35;65.63;99444.88;5092349;28;20080;-23
2021/07/05 01:27:09;;;;;;;11.27;7.68;;;;;;;17.96;66.99;99444.94;5110532;28;20035;-23
2021/07/05 01:29:34;;;;;;;10.43;7.78;;;;;;;18.34;65.53;99442.44;5110656;28;20118;-23
2021/07/05 01:32:00;;;;;;;11.15;7.82;;;;;;;18.72;64.15;99435.28;5110052;28;20036;-23
2021/07/05 01:34:25;;;;;;;11.15;8.02;;;;;;;19.13;63.02;99432.09;5109984;28;20023;-23
2021/07/05 01:36:51;;;;;;;9.90;7.63;;;;;;;19.02;62.71;99447.66;5110373;28;20137;-23
2021/07/05 01:39:20;;;;;;;11.50;8.02;;;;;;;18.75;64.43;99442.78;5110198;28;20038;-23
2021/07/05 01:41:46;;;;;;;9.10;7.25;;;;;;;18.34;65.53;99435.16;5092014;28;20038;-23
2021/07/05 01:44:11;;;;;;;10.88;8.10;;;;;;;18.19;65.49;99419.13;5091531;28;20024;-23
2021/07/05 01:46:37;;;;;;;17.30;8.60;;;;;;;18.17;66.03;99426.69;5109564;28;20493;-23
2021/07/05 01:49:03;;;;;;;12.70;8.90;;;;;;;18.46;64.94;99440.16;5110263;28;20055;-23
2021/07/05 01:51:28;;;;;;;11.52;8.20;;;;;;;18.52;64.39;99438.22;5092070;28;20031;-23
2021/07/05 01:53:54;;;;;;;12.27;8.50;;;;;;;18.46;64.64;99450.97;5109990;28;20489;-23
2021/07/05 01:56:19;;;;;;;13.68;10.38;;;;;;;18.42;64.28;99445.31;5109951;28;20054;-23
2021/07/05 01:58:45;;;;;;;10.88;8.73;;;;;;;18.54;64.07;99436.84;5110465;28;20031;-23
2021/07/05 02:01:10;;;;;;;12.70;9.07;;;;;;;18.65;63.29;99448.31;5109867;28;20137;-23
2021/07/05 02:03:36;;;;;;;12.38;8.40;;;;;;;18.38;64.00;99441.56;5109600;28;20043;-23
2021/07/05 02:06:02;;;;;;;10.40;8.55;;;;;;;18.41;64.36;99441.03;5109574;28;20403;-23
2021/07/05 02:08:27;;;;;;;11.60;8.80;;;;;;;18.00;65.31;99438.72;5091795;28;20035;-23
2021/07/05 02:10:53;;;;;;;10.75;8.73;;;;;;;18.64;63.09;99446.72;5074472;28;20038;-23
2021/07/05 02:13:29;;;;;;;11.27;8.68;;;;;;;18.18;64.88;99461.47;5109619;28;20027;-23
2021/07/05 02:15:56;;;;;;;11.30;8.40;;;;;;;17.70;66.53;99444.34;5109188;28;20031;-23
2021/07/05 02:18:21;;;;;;;11.18;8.25;;;;;;;17.41;68.05;99442.38;5091313;28;20066;-23
2021/07/05 02:20:47;;;;;;;9.55;7.43;;;;;;;17.49;67.74;99447.16;5091332;28;20023;-23
2021/07/05 02:23:13;;;;;;;9.70;7.03;;;;;;;17.80;66.33;99444.25;5109424;28;20471;-23
2021/07/05 02:25:39;;;;;;;11.38;7.72;;;;;;;18.16;64.84;99441.25;5091257;28;20027;-23
2021/07/05 02:28:10;;;;;;;14.80;7.18;;;;;;;18.24;63.71;99440.66;5109201;28;20427;-23
2021/07/05 02:30:35;;;;;;;8.85;6.78;;;;;;;17.60;65.96;99440.59;5091593;28;20099;-23
2021/07/05 02:33:01;;;;;;;10.00;7.25;;;;;;;17.49;66.20;99431.00;5109090;28;20473;-23
2021/07/05 02:35:27;;;;;;;9.75;7.20;;;;;;;17.86;64.43;99429.66;5090884;28;20024;-23
2021/07/05 02:37:54;;;;;;;9.95;7.00;;;;;;;17.85;64.06;99426.16;5108693;28;20028;-23
2021/07/05 02:40:22;;;;;;;11.40;6.80;;;;;;;17.95;63.78;99411.78;5107970;28;20059;-24
2021/07/05 02:42:48;;;;;;;10.38;7.00;;;;;;;18.30;62.70;99407.13;5098050;28;20110;-23
2021/07/05 02:45:18;;;;;;;10.15;7.35;;;;;;;18.54;61.71;99414.44;5079828;28;20104;-23
2021/07/05 02:47:44;;;;;;;10.80;7.20;;;;;;;18.54;61.66;99419.84;5098419;28;20024;-23
2021/07/05 02:50:10;;;;;;;10.98;7.10;;;;;;;18.01;64.25;99424.13;5099086;28;20027;-24
2021/07/05 02:52:36;;;;;;;11.15;7.20;;;;;;;18.32;62.91;99431.94;5097149;28;20032;-23
2021/07/05 02:55:03;;;;;;;11.05;7.55;;;;;;;17.41;66.43;99405.44;5080545;28;20501;-23
2021/07/05 02:57:29;;;;;;;11.03;7.73;;;;;;;17.34;67.82;99428.38;5097872;28;20024;-23
2021/07/05 03:00:05;;;;;;;13.63;8.50;;;;;;;17.61;66.49;99412.56;5096739;28;20035;-23
2021/07/05 03:02:31;;;;;;;10.57;7.50;;;;;;;17.85;65.63;99436.94;5097192;28;20548;-23
2021/07/05 03:05:00;;;;;;;13.68;7.82;;;;;;;17.79;65.80;99439.94;5064576;28;20048;-23
2021/07/05 03:07:26;;;;;;;14.52;8.25;;;;;;;18.03;65.17;99446.22;5098253;28;20020;-23
2021/07/05 03:09:52;;;;;;;12.55;8.00;;;;;;;17.87;66.10;99442.06;5099072;28;20039;-23
2021/07/05 03:12:17;;;;;;;12.50;8.45;;;;;;;17.52;67.48;99449.28;5078517;28;20020;-23
2021/07/05 03:14:43;;;;;;;11.70;8.07;;;;;;;17.32;68.09;99434.03;5105323;28;20490;-23
2021/07/05 03:17:08;;;;;;;11.45;9.10;;;;;;;17.34;67.79;99447.25;5093137;28;20089;-23
2021/07/05 03:19:34;;;;;;;13.20;8.93;;;;;;;18.04;65.65;99455.13;5087962;28;20047;-23
2021/07/05 03:21:59;;;;;;;20.27;8.52;;;;;;;18.15;64.33;99440.47;5089317;28;20035;-24
2021/07/05 03:24:25;;;;;;;14.15;8.57;;;;;;;18.27;63.85;99461.69;5088841;28;20042;-23
2021/07/05 03:26:50;;;;;;;10.77;7.80;;;;;;;17.81;64.46;99433.16;5087945;28;20047;-23
2021/07/05 03:29:16;;;;;;;12.82;7.80;;;;;;;17.49;66.65;99439.09;5087869;28;20039;-23
2021/07/05 03:31:41;;;;;;;12.15;7.50;;;;;;;18.07;64.51;99452.66;5087864;28;20032;-23
2021/07/05 03:34:07;;;;;;;11.80;8.30;;;;;;;17.70;65.89;99449.72;5087644;28;20028;-23
2021/07/05 03:36:32;;;;;;;11.40;7.38;;;;;;;17.85;66.01;99449.63;5087118;28;20411;-23
2021/07/05 03:38:57;;;;;;;12.48;7.43;;;;;;;17.07;67.18;99443.09;5087675;28;20040;-23
2021/07/05 03:41:23;;;;;;;11.65;8.23;;;;;;;17.34;67.00;99431.09;5087936;28;20875;-23
2021/07/05 03:43:48;;;;;;;13.18;8.23;;;;;;;18.17;64.76;99440.19;5072043;28;20035;-23
2021/07/05 03:46:14;;;;;;;11.88;8.07;;;;;;;17.66;65.94;99411.72;5087747;28;20483;-23
2021/07/05 03:48:40;;;;;;;11.02;7.75;;;;;;;18.27;62.74;99432.00;5098364;28;20553;-23
2021/07/05 03:51:05;;;;;;;10.30;7.90;;;;;;;18.59;61.65;99408.97;5087844;28;20024;-23
2021/07/05 03:53:31;;;;;;;11.18;8.13;;;;;;;18.63;61.39;99434.28;5089263;28;20096;-23
2021/07/05 03:55:56;;;;;;;12.18;7.32;;;;;;;18.79;61.29;99437.66;5087272;28;20031;-23
2021/07/05 03:58:22;;;;;;;12.52;7.47;;;;;;;18.72;61.39;99437.97;5087733;28;20412;-23
2021/07/05 04:00:47;;;;;;;9.82;7.68;;;;;;;19.00;60.22;99417.41;5104456;28;20031;-23
2021/07/05 04:03:13;;;;;;;13.30;7.75;;;;;;;19.43;59.32;99430.88;5107494;28;20423;-23
2021/07/05 04:05:38;;;;;;;9.50;7.25;;;;;;;19.43;59.59;99427.34;5108313;28;20027;-23
2021/07/05 04:08:04;;;;;;;11.10;7.38;;;;;;;18.93;60.59;99418.84;5089920;28;20035;-23
2021/07/05 04:10:31;;;;;;;10.00;7.80;;;;;;;19.11;61.93;99426.19;5092071;28;20480;-23
2021/07/05 04:12:57;;;;;;;10.57;8.43;;;;;;;19.12;62.42;99435.09;5081669;28;20036;-23
2021/07/05 04:15:22;;;;;;;11.20;9.38;;;;;;;19.23;62.27;99420.34;5091883;28;20031;-23
2021/07/05 04:17:48;;;;;;;11.43;9.32;;;;;;;19.14;61.92;99401.25;5096403;28;20043;-23
2021/07/05 04:20:16;;;;;;;11.65;10.43;;;;;;;19.04;63.48;99425.72;5099438;28;20059;-23
2021/07/05 04:22:41;;;;;;;11.20;9.68;;;;;;;18.96;63.82;99420.97;5091347;28;21069;-24
2021/07/05 04:25:08;;;;;;;10.52;9.35;;;;;;;19.35;62.33;99418.00;5091252;28;20032;-24
2021/07/05 04:27:33;;;;;;;11.00;9.40;;;;;;;19.21;62.46;99412.53;5073147;28;20028;-24
2021/07/05 04:29:59;;;;;;;11.98;9.32;;;;;;;19.44;62.13;99401.91;5091090;28;20031;-24
2021/07/05 04:32:24;;;;;;;13.85;10.10;;;;;;;19.40;62.69;99409.81;5091290;28;20407;-23
2021/07/05 04:34:49;;;;;;;12.70;9.43;;;;;;;19.07;63.51;99428.66;5093941;28;20020;-23
2021/07/05 04:37:15;;;;;;;11.95;9.45;;;;;;;18.91;64.81;99405.63;5070369;28;20042;-23
2021/07/05 04:39:41;;;;;;;11.88;9.15;;;;;;;18.89;64.36;99410.50;5090856;28;20042;-23
2021/07/05 04:42:07;;;;;;;11.93;8.82;;;;;;;19.06;63.21;99424.34;5073095;28;20542;-23
2021/07/05 04:44:32;;;;;;;11.32;8.77;;;;;;;19.11;63.91;99434.28;5100953;28;20407;-23
2021/07/05 04:46:58;;;;;;;14.20;9.15;;;;;;;19.23;64.08;99425.75;5111212;28;20506;-23
2021/07/05 04:49:26;;;;;;;10.65;8.98;;;;;;;18.96;63.97;99426.38;5091608;28;20078;-23
2021/07/05 04:51:51;;;;;;;12.45;8.90;;;;;;;19.56;62.61;99426.59;5072890;28;20097;-23
2021/07/05 04:54:17;;;;;;;15.77;9.10;;;;;;;20.05;61.17;99425.28;5078504;28;20032;-23
2021/07/05 04:56:42;;;;;;;11.52;8.55;;;;;;;20.56;59.37;99433.59;5111183;28;20093;-23
2021/07/05 04:59:08;;;;;;;10.70;9.35;;;;;;;20.57;59.43;99427.06;5075432;28;20039;-23
2021/07/05 05:01:34;;;;;;;11.73;9.07;;;;;;;20.83;58.44;99438.22;5076747;28;20119;-23
2021/07/05 05:03:59;;;;;;;10.77;7.78;;;;;;;20.90;57.64;99418.84;5092897;28;20064;-23
2021/07/05 05:06:25;;;;;;;81.47;51.63;;;;;;;21.17;57.06;99421.50;5103105;28;20930;-23
2021/07/05 05:08:51;;;;;;;19.35;13.05;;;;;;;21.14;56.48;99416.69;5090346;28;20392;-23
2021/07/05 05:11:18;;;;;;;37.42;26.52;;;;;;;21.63;55.41;99419.66;5090244;28;20020;-23
2021/07/05 05:13:43;;;;;;;77.70;48.92;;;;;;;21.33;55.86;99421.16;5106260;28;20027;-23
2021/07/05 05:16:11;;;;;;;31.55;20.55;;;;;;;20.97;56.96;99427.38;5110354;28;20020;-23
2021/07/05 05:18:36;;;;;;;11.10;8.57;;;;;;;21.01;57.46;99417.53;5092191;28;20024;-24
2021/07/05 05:21:02;;;;;;;11.00;8.27;;;;;;;21.23;56.16;99425.72;5109360;28;20038;-23
2021/07/05 05:23:27;;;;;;;10.10;8.35;;;;;;;21.60;55.53;99418.38;5096712;28;20089;-23
2021/07/05 05:25:53;;;;;;;9.82;8.13;;;;;;;21.63;55.59;99417.75;5090969;28;20055;-23
2021/07/05 05:28:19;;;;;;;11.27;9.38;;;;;;;21.87;56.59;99427.50;5071723;28;20114;-23
2021/07/05 05:30:44;;;;;;;9.65;8.00;;;;;;;21.55;55.39;99421.19;5095902;28;20031;-23
2021/07/05 05:33:10;;;;;;;11.32;8.98;;;;;;;21.67;56.60;99426.88;5100650;28;20027;-23
2021/07/05 05:35:35;;;;;;;11.82;8.68;;;;;;;21.71;53.77;99424.34;5110085;28;20035;-23
2021/07/05 05:38:01;;;;;;;10.77;8.52;;;;;;;21.79;52.77;99426.31;5109539;28;20036;-23
2021/07/05 05:40:26;;;;;;;10.18;8.65;;;;;;;21.69;53.26;99417.66;5108121;28;20110;-23
2021/07/05 05:42:52;;;;;;;12.57;8.40;;;;;;;21.56;53.37;99401.13;5094010;28;20028;-23
2021/07/05 05:45:18;;;;;;;11.25;8.27;;;;;;;21.52;53.30;99405.56;5070106;28;20039;-23
2021/07/05 05:47:43;;;;;;;10.70;8.57;;;;;;;21.83;52.77;99416.47;5089809;28;20031;-23
2021/07/05 05:50:09;;;;;;;10.38;8.00;;;;;;;22.01;52.59;99406.50;5089544;28;20028;-23
2021/07/05 05:52:35;;;;;;;10.68;8.45;;;;;;;22.24;51.95;99401.06;5071518;28;20057;-23
2021/07/05 05:55:01;;;;;;;9.02;7.93;;;;;;;22.64;51.21;99412.72;5072596;28;20028;-23
2021/07/05 05:57:27;;;;;;;10.68;7.68;;;;;;;22.41;51.56;99408.47;5072328;28;20115;-23
2021/07/05 05:59:54;;;;;;;32.58;9.85;;;;;;;22.68;52.71;99418.34;5088935;28;20837;-23
2021/07/05 06:02:19;;;;;;;13.53;9.33;;;;;;;23.01;51.28;99409.78;5089264;28;20043;-23
2021/07/05 06:04:45;;;;;;;18.90;8.45;;;;;;;23.39;50.26;99411.88;5104262;28;20657;-23
2021/07/05 06:07:10;;;;;;;10.30;8.20;;;;;;;23.06;49.67;99412.34;5109949;28;20076;-23
2021/07/05 06:09:36;;;;;;;15.30;8.75;;;;;;;23.26;50.38;99406.28;5109530;28;20031;-23
2021/07/05 06:12:02;;;;;;;10.63;8.10;;;;;;;23.44;48.98;99406.31;5109346;28;20420;-23
2021/07/05 06:14:27;;;;;;;12.82;8.10;;;;;;;23.10;50.09;99407.88;5109429;28;20084;-23
2021/07/05 06:16:52;;;;;;;10.70;8.02;;;;;;;23.44;49.68;99403.59;5109454;28;20475;-23
2021/07/05 06:19:18;;;;;;;11.48;8.63;;;;;;;23.70;49.79;99394.56;5109861;28;20036;-23
2021/07/05 06:21:43;;;;;;;10.48;8.20;;;;;;;23.98;48.56;99395.81;5109344;28;20031;-23
2021/07/05 06:24:09;;;;;;;12.60;7.82;;;;;;;24.09;48.66;99399.03;5109266;28;20054;-23
2021/07/05 06:26:34;;;;;;;12.18;8.85;;;;;;;23.86;51.63;99382.09;5109578;28;20031;-23
2021/07/05 06:29:00;;;;;;;10.13;7.90;;;;;;;24.16;49.48;99388.41;5109221;28;20388;-23
2021/07/05 06:31:25;;;;;;;11.90;9.18;;;;;;;24.17;50.02;99379.13;5108936;28;20032;-23
2021/07/05 06:33:51;;;;;;;10.15;8.23;;;;;;;24.15;49.24;99380.56;5108680;28;20066;-23
2021/07/05 06:36:17;;;;;;;11.60;8.52;;;;;;;23.93;50.60;99378.88;5109036;28;20035;-23
2021/07/05 06:38:43;;;;;;;9.75;8.75;;;;;;;23.86;49.42;99369.28;5108897;28;20043;-22
2021/07/05 06:41:08;;;;;;;10.50;8.50;;;;;;;24.11;49.29;99379.59;5108957;28;20027;-22
2021/07/05 06:43:34;;;;;;;10.13;8.85;;;;;;;24.26;48.53;99387.25;5108822;28;20031;-23
2021/07/05 06:46:00;;;;;;;11.27;8.55;;;;;;;24.10;48.52;99364.41;5090506;28;20031;-22
2021/07/05 06:48:26;;;;;;;10.00;8.27;;;;;;;24.02;48.13;99380.44;5108926;28;20491;-23
2021/07/05 06:50:51;;;;;;;9.45;7.30;;;;;;;24.15;47.63;99373.19;5108813;28;20046;-22
2021/07/05 06:53:17;;;;;;;8.75;7.40;;;;;;;24.49;47.76;99384.25;5108523;28;20039;-22
2021/07/05 06:55:42;;;;;;;12.50;8.18;;;;;;;24.41;46.35;99377.72;5090387;28;20032;-23
2021/07/05 06:58:08;;;;;;;8.88;7.78;;;;;;;24.65;46.29;99371.69;5096971;28;20024;-23
2021/07/05 07:00:33;;;;;;;8.25;7.25;;;;;;;24.95;45.13;99379.84;5088450;28;20028;-23
2021/07/05 07:02:59;;;;;;;8.23;7.05;;;;;;;24.84;45.44;99368.53;5088192;28;20032;-22
2021/07/05 07:05:25;;;;;;;10.23;6.57;;;;;;;25.04;44.23;99373.19;5070246;28;20054;-22
2021/07/05 07:07:54;;;;;;;9.05;6.68;;;;;;;25.01;44.81;99362.97;5087841;28;20032;-23
2021/07/05 07:10:21;;;;;;;10.20;7.00;;;;;;;25.40;45.78;99371.03;5088482;28;20038;-22
2021/07/05 07:12:48;;;;;;;7.50;6.45;;;;;;;25.69;43.09;99369.28;5088037;28;20026;-23
2021/07/05 07:15:14;;;;;;;10.13;7.15;;;;;;;25.77;43.19;99354.75;5088120;28;20028;-23
2021/07/05 07:17:44;;;;;;;7.82;6.78;;;;;;;25.71;44.33;99361.56;5088137;28;20032;-23
2021/07/05 07:20:12;;;;;;;9.30;8.23;;;;;;;25.91;44.30;99360.72;5087865;28;20020;-23
2021/07/05 07:22:37;;;;;;;;;;;;;;;26.14;44.10;99363.03;5070415;28;20036;-23
2021/07/05 07:25:07;;;;;;;9.43;8.10;;;;;;;26.36;44.83;99359.84;5088095;28;19915;-22
2021/07/05 07:27:33;;;;;;;9.02;7.30;;;;;;;26.58;44.82;99355.06;5087983;28;20032;-23
2021/07/05 07:29:58;;;;;;;8.27;6.53;;;;;;;26.75;41.80;99354.03;5087785;28;20039;-23
2021/07/05 07:32:24;;;;;;;9.18;7.10;;;;;;;26.65;41.79;99360.78;5088084;28;20036;-23
2021/07/05 07:34:49;;;;;;;9.68;6.90;;;;;;;26.67;42.03;99353.03;5087989;28;21001;-22
2021/07/05 07:37:15;;;;;;;8.95;6.55;;;;;;;26.80;42.39;99351.84;5087865;28;20053;-23
2021/07/05 07:39:43;;;;;;;9.10;6.53;;;;;;;26.94;40.02;99353.44;5087603;28;20036;-22
2021/07/05 07:42:09;;;;;;;7.78;6.10;;;;;;;27.09;40.09;99346.41;5087428;28;20032;-23
2021/07/05 07:44:34;;;;;;;8.02;6.78;;;;;;;27.09;42.23;99352.69;5091501;28;20556;-22
2021/07/05 07:47:01;;;;;;;7.60;5.97;;;;;;;27.14;39.32;99349.72;5091852;28;20039;-22
2021/07/05 07:49:27;;;;;;;9.20;6.32;;;;;;;27.30;39.30;99347.06;5091728;28;20169;-23
2021/07/05 07:51:53;;;;;;;7.07;5.15;;;;;;;27.38;37.67;99334.34;5091581;28;20027;-22
2021/07/05 07:54:18;;;;;;;8.48;5.53;;;;;;;27.46;37.08;99327.91;5073532;28;20157;-22
2021/07/05 07:56:44;;;;;;;7.63;5.45;;;;;;;27.39;37.38;99333.22;5091798;28;20419;-23
2021/07/05 07:59:09;;;;;;;7.45;5.20;;;;;;;27.52;37.15;99340.22;5091712;28;20028;-22
2021/07/05 08:01:35;;;;;;;7.72;5.45;;;;;;;27.83;36.51;99325.00;5091356;28;20036;-22
2021/07/05 08:04:00;;;;;;;6.10;4.85;;;;;;;28.12;36.11;99342.19;5091282;28;20052;-23
2021/07/05 08:06:26;;;;;;;7.57;5.00;;;;;;;27.94;35.20;99341.72;5091556;28;20110;-23
2021/07/05 08:08:53;;;;;;;7.63;4.75;;;;;;;28.12;34.68;99325.72;5073471;28;20114;-22
2021/07/05 08:11:19;;;;;;;7.07;5.05;;;;;;;27.98;34.13;99342.63;5091330;28;20079;-22
2021/07/05 08:13:44;;;;;;;7.63;5.07;;;;;;;28.02;34.68;99327.06;5091458;28;20040;-23
2021/07/05 08:16:10;;;;;;;6.43;4.85;;;;;;;28.07;35.32;99339.69;5072989;28;20081;-22
2021/07/05 08:18:35;;;;;;;8.07;4.80;;;;;;;28.57;33.76;99338.16;5091531;28;20043;-23
2021/07/05 08:21:01;;;;;;;6.85;4.47;;;;;;;28.72;33.58;99337.31;5091688;28;20028;-23
2021/07/05 08:23:27;;;;;;;8.77;5.32;;;;;;;29.14;33.61;99342.16;5091312;28;20393;-22
2021/07/05 08:25:52;;;;;;;6.80;4.40;;;;;;;29.15;32.76;99326.47;5090891;28;20454;-23
2021/07/05 08:28:18;;;;;;;8.25;4.85;;;;;;;29.30;33.68;99322.03;5091042;28;20032;-23
2021/07/05 08:30:44;;;;;;;7.18;4.68;;;;;;;29.20;34.67;99335.22;5090929;28;20035;-24
2021/07/05 08:33:10;;;;;;;6.20;4.80;;;;;;;29.00;33.64;99306.16;5090876;28;20472;-23
2021/07/05 08:35:36;;;;;;;8.18;5.07;;;;;;;29.11;33.40;99329.13;5072774;28;20035;-22
2021/07/05 08:38:02;;;;;;;6.18;4.90;;;;;;;29.00;34.19;99314.38;5090672;28;20028;-23
2021/07/05 08:40:27;;;;;;;6.60;5.03;;;;;;;29.19;33.65;99311.63;5090846;28;20032;-23
2021/07/05 08:42:54;;;;;;;7.18;4.93;;;;;;;29.41;31.50;99323.03;5090946;28;20097;-23
2021/07/05 08:45:19;;;;;;;7.53;5.73;;;;;;;29.39;33.25;99311.63;5075077;28;20039;-22
2021/07/05 08:47:48;;;;;;;8.55;5.07;;;;;;;29.53;33.32;99325.63;5090593;28;20278;-23
2021/07/05 08:50:14;;;;;;;7.03;5.30;;;;;;;29.54;33.49;99307.19;5090683;28;20115;-23
2021/07/05 08:52:43;;;;;;;9.55;4.80;;;;;;;29.80;33.52;99309.25;5072958;28;20095;-22
2021/07/05 08:55:10;;;;;;;6.50;5.53;;;;;;;29.70;33.25;99298.84;5090324;28;20036;-23
2021/07/05 08:57:40;;;;;;;7.40;5.45;;;;;;;29.87;31.98;99295.59;5105558;28;20081;-22
2021/07/05 09:00:19;;;;;;;7.50;5.20;;;;;;;30.22;31.44;99311.91;5110654;28;20394;-22
2021/07/05 09:02:45;;;;;;;9.93;5.15;;;;;;;30.18;31.67;99302.78;5111217;28;20407;-22
2021/07/05 09:05:11;;;;;;;7.55;5.18;;;;;;;30.60;29.89;99306.56;5110399;28;20043;-22
2021/07/05 09:07:56;;;;;;;6.13;4.88;;;;;;;31.06;30.19;99303.63;5092973;28;20031;-22
2021/07/05 09:10:21;;;;;;;7.68;5.50;;;;;;;30.95;28.65;99300.75;5110822;28;20438;-22
2021/07/05 09:13:06;;;;;;;6.45;5.03;;;;;;;30.92;28.85;99292.47;5110632;28;20028;-22
2021/07/05 09:15:45;;;;;;;7.38;5.30;;;;;;;30.50;29.01;99293.44;5092407;28;20089;-22
2021/07/05 09:18:30;;;;;;;7.85;5.13;;;;;;;30.66;28.92;99294.06;5110928;28;20034;-22
2021/07/05 09:21:07;;;;;;;7.28;5.15;;;;;;;30.49;27.86;99289.91;5110504;28;20460;-22
2021/07/05 09:23:33;;;;;;;;;;;;;;;30.74;26.88;99287.47;5111018;28;20084;-23
2021/07/05 09:25:58;;;;;;;7.17;5.53;;;;;;;30.79;28.33;99273.41;5092096;28;19911;-22
2021/07/05 09:28:24;;;;;;;7.05;5.18;;;;;;;31.39;28.07;99277.22;5110210;28;20261;-22
2021/07/05 09:30:51;;;;;;;6.70;5.35;;;;;;;31.22;26.99;99284.13;5110418;28;20036;-22
2021/07/05 09:33:20;;;;;;;;;;;;;;;31.39;27.71;99277.22;5090517;28;20039;-22
2021/07/05 09:36:04;;;;;;;7.60;5.32;;;;;;;31.33;27.37;99274.03;5110117;28;20446;-22
2021/07/05 09:38:31;;;;;;;7.22;5.57;;;;;;;31.73;26.54;99271.66;5093690;28;20035;-22
2021/07/05 09:40:57;;;;;;;7.82;5.85;;;;;;;31.47;27.23;99261.56;5089706;28;20036;-22
2021/07/05 09:43:24;;;;;;;7.28;5.65;;;;;;;31.06;25.69;99273.34;5090324;28;20043;-24
2021/07/05 09:45:49;;;;;;;6.57;5.47;;;;;;;31.33;25.58;99262.22;5084525;28;20081;-22
2021/07/05 09:48:25;;;;;;;7.22;5.93;;;;;;;31.33;27.00;99253.94;5090505;28;20039;-22
2021/07/05 09:51:01;;;;;;;6.28;5.50;;;;;;;31.22;26.03;99257.38;5098337;28;20491;-22
2021/07/05 09:53:40;;;;;;;7.82;5.88;;;;;;;31.63;27.99;99257.41;5110391;28;20035;-22
2021/07/05 09:56:24;;;;;;;8.05;6.40;;;;;;;31.68;26.69;99252.72;5078540;28;20039;-22
2021/07/05 09:58:53;;;;;;;7.57;5.88;;;;;;;32.03;27.15;99250.25;5089387;28;20028;-22
2021/07/05 10:01:34;;;;;;;7.40;5.72;;;;;;;31.82;27.57;99244.56;5092069;28;20024;-23
2021/07/05 10:04:07;;;;;;;6.55;5.50;;;;;;;31.56;27.67;99227.03;5089228;28;20415;-22
2021/07/05 10:06:46;;;;;;;8.43;5.00;;;;;;;32.08;27.04;99234.50;5071416;28;20044;-22
2021/07/05 10:09:13;;;;;;;6.85;5.30;;;;;;;32.07;26.06;99224.66;5089580;28;20399;-22
2021/07/05 10:11:39;;;;;;;7.20;5.10;;;;;;;32.11;28.17;99225.47;5073172;28;20092;-22
2021/07/05 10:14:22;;;;;;;5.10;4.32;;;;;;;32.34;27.25;99226.00;5100112;28;20040;-23
2021/07/05 10:16:49;;;;;;;5.78;4.40;;;;;;;32.61;26.15;99231.25;5109526;28;20035;-22
2021/07/05 10:19:15;;;;;;;5.97;4.55;;;;;;;32.61;25.78;99225.75;5109440;28;20039;-22
2021/07/05 10:21:41;;;;;;;6.50;4.70;;;;;;;33.07;25.96;99219.56;5109385;28;20031;-22
2021/07/05 10:24:07;;;;;;;6.72;4.38;;;;;;;33.13;24.78;99220.81;5109326;28;20059;-23
2021/07/05 10:26:34;;;;;;;7.28;5.50;;;;;;;33.11;25.60;99217.63;5090972;28;20024;-23
2021/07/05 10:28:59;;;;;;;7.78;4.80;;;;;;;33.28;26.03;99216.06;5109558;28;20494;-23
2021/07/05 10:31:26;;;;;;;8.52;5.60;;;;;;;33.40;26.72;99210.16;5109335;28;20028;-23
2021/07/05 10:33:52;;;;;;;6.00;4.47;;;;;;;33.39;24.62;99213.34;5108844;28;20031;-23
2021/07/05 10:36:17;;;;;;;7.88;4.25;;;;;;;33.18;24.91;99205.81;5109272;28;20509;-23
2021/07/05 10:38:49;;;;;;;6.63;4.22;;;;;;;33.19;22.57;99208.19;5091013;28;20031;-22
2021/07/05 10:41:15;;;;;;;5.40;4.18;;;;;;;33.03;23.97;99204.97;5108383;28;20027;-23
2021/07/05 10:43:55;;;;;;;6.32;4.60;;;;;;;32.92;24.65;99198.66;5097140;28;20054;-22
2021/07/05 10:46:50;;;;;;;5.38;4.30;;;;;;;33.00;23.80;99205.78;5109054;28;20114;-24
2021/07/05 10:49:28;;;;;;;5.10;4.40;;;;;;;32.87;24.65;99210.84;5109144;28;20028;-22
2021/07/05 10:51:54;;;;;;;5.60;4.38;;;;;;;32.91;24.29;99206.13;5107509;28;20036;-22
2021/07/05 10:54:45;;;;;;;6.93;4.93;;;;;;;33.04;24.47;99201.03;5083081;28;20084;-22
2021/07/05 10:57:14;;;;;;;6.50;4.60;;;;;;;33.61;26.59;99190.06;5097656;28;20028;-22
2021/07/05 10:59:41;;;;;;;8.10;5.32;;;;;;;33.15;24.56;99182.53;5090691;28;20527;-22
2021/07/05 11:02:32;;;;;;;6.43;4.78;;;;;;;33.59;23.83;99186.88;5108233;28;20046;-22
2021/07/05 11:04:58;;;;;;;6.53;4.90;;;;;;;33.53;24.35;99188.47;5086847;28;20052;-22
2021/07/05 11:07:24;;;;;;;6.05;4.32;;;;;;;33.64;22.48;99171.91;5085098;28;21016;-22
2021/07/05 11:09:54;;;;;;;5.70;4.45;;;;;;;34.14;24.55;99190.38;5059782;28;20094;-22
2021/07/05 11:12:33;;;;;;;8.23;4.80;;;;;;;34.15;23.32;99180.91;5081261;28;20423;-22
2021/07/05 11:14:59;;;;;;;5.93;4.82;;;;;;;34.20;23.30;99161.09;5068140;28;20910;-22
2021/07/05 11:17:26;;;;;;;7.18;5.03;;;;;;;34.22;24.00;99161.50;5067174;28;20029;-22
2021/07/05 11:19:58;;;;;;;8.02;5.18;;;;;;;33.69;23.91;99163.19;5067677;28;20039;-22
2021/07/05 11:22:28;;;;;;;7.57;5.03;;;;;;;33.83;23.91;99162.38;5068039;28;20036;-22
2021/07/05 11:25:01;;;;;;;5.93;4.40;;;;;;;33.87;24.02;99141.03;5067772;28;20419;-22
2021/07/05 11:27:29;;;;;;;7.47;5.18;;;;;;;34.16;23.74;99168.63;5080360;28;20032;-23
2021/07/05 11:29:55;;;;;;;6.45;5.00;;;;;;;33.93;23.06;99156.03;5084566;28;20046;-22